Time;durP1;ratioP1;P1;durP2;ratioP2;P2;SDS_P1;SDS_P2;PMS_P1;PMS_P2;Temp;Humidity;BMP_temperature;BMP_pressure;BME280_temperature;BME280_humidity;BME280_pressure;Samples;Min_cycle;Max_cycle;Signal;HPM_P1;HPM_P2
2023/10/07 00:00:47;;;;;;;;;;;20.60;74.20;;;;;;4950976;28;97954;-36
2023/10/07 00:03:17;;;;;;;;;;;20.70;74.30;;;;;;4944957;28;97035;-37
2023/10/07 00:05:46;;;;;;;;;;;20.70;74.20;;;;;;4949195;28;94797;-37
2023/10/07 00:08:16;;;;;;;;;;;20.70;74.00;;;;;;4952312;28;98723;-37
2023/10/07 00:10:43;;;;;;;;;;;20.70;74.10;;;;;;4948660;28;94717;-37
2023/10/07 00:13:09;;;;;;;;;;;20.70;74.10;;;;;;4945109;28;98299;-35
2023/10/07 00:15:36;;;;;;;;;;;20.60;74.10;;;;;;4946770;28;95805;-36
2023/10/07 00:20:39;;;;;;;;;;;20.60;74.20;;;;;;4940492;28;96030;-36
2023/10/07 00:23:06;;;;;;;;;;;20.60;74.20;;;;;;4950397;28;94786;-36
2023/10/07 00:25:32;;;;;;;;;;;20.60;74.30;;;;;;4947763;28;97174;-37
2023/10/07 00:27:58;;;;;;;;;;;20.60;74.20;;;;;;4948534;28;94889;-36
2023/10/07 00:30:27;;;;;;;;;;;20.60;74.20;;;;;;4950040;28;94884;-37
2023/10/07 00:32:55;;;;;;;;;;;20.60;74.20;;;;;;4940392;28;93994;-37
2023/10/07 00:35:22;;;;;;;;;;;20.60;74.20;;;;;;4948327;28;94875;-37
2023/10/07 00:37:48;;;;;;;;;;;20.60;74.20;;;;;;4951540;28;95481;-37
2023/10/07 00:40:41;;;;;;;;;;;20.50;74.20;;;;;;4951482;28;96514;-36
2023/10/07 00:43:10;;;;;;;;;;;20.50;74.20;;;;;;4943987;28;101185;-37
2023/10/07 00:45:35;;;;;;;;;;;20.50;74.20;;;;;;4948100;28;94708;-37
2023/10/07 00:48:04;;;;;;;;;;;20.50;74.30;;;;;;4950188;28;96018;-37
2023/10/07 00:50:30;;;;;;;;;;;20.50;74.40;;;;;;4945422;28;94740;-37
2023/10/07 00:52:57;;;;;;;;;;;20.50;74.50;;;;;;4948014;28;95253;-37
2023/10/07 00:55:29;;;;;;;;;;;20.50;74.30;;;;;;4949251;28;95182;-37
2023/10/07 01:00:41;;;;;;;;;;;20.50;74.40;;;;;;4944288;28;96249;-37
2023/10/07 01:03:17;;;;;;;;;;;20.50;74.30;;;;;;4936572;28;94725;-36
2023/10/07 01:06:09;;;;;;;;;;;20.50;74.20;;;;;;4946409;28;95757;-37
2023/10/07 01:08:50;;;;;;;;;;;20.50;74.20;;;;;;4950395;28;94744;-37
2023/10/07 01:13:48;;;;;;;;;;;20.50;74.00;;;;;;4944943;28;99304;-37
2023/10/07 01:16:24;;;;;;;;;;;20.50;74.20;;;;;;4953322;28;96289;-37
2023/10/07 01:18:50;;;;;;;;;;;20.50;74.20;;;;;;4947754;28;95257;-36
2023/10/07 01:21:31;;;;;;;;;;;20.50;74.20;;;;;;4945486;28;94980;-36
2023/10/07 01:23:58;;;;;;;;;;;20.40;75.00;;;;;;4943387;28;96047;-36
2023/10/07 01:26:29;;;;;;;;;;;20.50;74.30;;;;;;4954041;28;94578;-37
2023/10/07 01:29:11;;;;;;;;;;;20.50;74.30;;;;;;4952746;28;100551;-36
2023/10/07 01:31:40;;;;;;;;;;;20.40;74.10;;;;;;4943369;28;98434;-37
2023/10/07 01:34:08;;;;;;;;;;;20.40;74.20;;;;;;4949234;28;94976;-37
2023/10/07 01:36:35;;;;;;;;;;;20.50;74.20;;;;;;4947737;28;96046;-37
2023/10/07 01:39:01;;;;;;;;;;;20.40;74.10;;;;;;4948832;28;95097;-37
2023/10/07 01:41:31;;;;;;;;;;;20.40;74.20;;;;;;4943970;28;96600;-37
2023/10/07 01:43:59;;;;;;;;;;;20.40;74.20;;;;;;4942532;28;96679;-37
2023/10/07 01:46:34;;;;;;;;;;;20.40;74.10;;;;;;4950436;28;94682;-37
2023/10/07 01:49:04;;;;;;;;;;;20.40;74.10;;;;;;4950539;28;94000;-37
2023/10/07 01:51:30;;;;;;;;;;;20.40;74.10;;;;;;4954189;28;94733;-37
2023/10/07 01:53:58;;;;;;;;;;;20.40;74.10;;;;;;4942781;28;96359;-37
2023/10/07 01:56:26;;;;;;;;;;;20.40;74.10;;;;;;4952764;28;96204;-37
2023/10/07 01:58:54;;;;;;;;;;;20.40;74.00;;;;;;4947330;28;95540;-37
2023/10/07 02:01:21;;;;;;;;;;;20.50;74.00;;;;;;4949742;28;95182;-37
2023/10/07 02:03:47;;;;;;;;;;;20.40;73.90;;;;;;4944479;28;95761;-37
2023/10/07 02:06:18;;;;;;;;;;;20.40;74.00;;;;;;4953226;28;94831;-37
2023/10/07 02:08:45;;;;;;;;;;;20.40;74.00;;;;;;4951400;28;98129;-37
2023/10/07 02:11:10;;;;;;;;;;;20.40;74.00;;;;;;4946664;28;95170;-37
2023/10/07 02:13:35;;;;;;;;;;;20.40;74.10;;;;;;4941940;28;95059;-37
2023/10/07 02:16:05;;;;;;;;;;;20.40;74.20;;;;;;4946007;28;95282;-37
2023/10/07 02:18:35;;;;;;;;;;;20.40;74.20;;;;;;4945650;28;95288;-37
2023/10/07 02:21:12;;;;;;;;;;;20.40;74.10;;;;;;4943560;28;96192;-37
2023/10/07 02:23:40;;;;;;;;;;;20.40;74.20;;;;;;4945153;28;94975;-37
2023/10/07 02:26:21;;;;;;;;;;;20.40;74.10;;;;;;4944654;28;95808;-37
2023/10/07 02:28:50;;;;;;;;;;;20.40;74.00;;;;;;4946583;28;95686;-37
2023/10/07 02:31:18;;;;;;;;;;;20.30;74.10;;;;;;4948213;28;97426;-37
2023/10/07 02:34:08;;;;;;;;;;;20.40;74.10;;;;;;4942650;28;95263;-37
2023/10/07 02:36:32;;;;;;;;;;;20.30;74.10;;;;;;4944434;28;98619;-37
2023/10/07 02:39:18;;;;;;;;;;;20.30;74.20;;;;;;4952589;28;95882;-37
2023/10/07 02:41:46;;;;;;;;;;;20.30;74.10;;;;;;4943618;28;97355;-37
2023/10/07 02:44:16;;;;;;;;;;;20.40;74.20;;;;;;4941725;28;97245;-36
2023/10/07 02:46:42;;;;;;;;;;;20.30;74.10;;;;;;4945177;28;96213;-37
2023/10/07 02:49:10;;;;;;;;;;;20.30;74.80;;;;;;4949546;28;97787;-37
2023/10/07 02:51:39;;;;;;;;;;;20.30;74.00;;;;;;4944544;28;95068;-37
2023/10/07 02:54:15;;;;;;;;;;;20.30;74.00;;;;;;4940415;28;97150;-37
2023/10/07 02:56:44;;;;;;;;;;;20.30;74.00;;;;;;4947005;28;95945;-37
2023/10/07 02:59:28;;;;;;;;;;;20.30;74.20;;;;;;4944675;28;95208;-37
2023/10/07 03:02:14;;;;;;;;;;;20.30;74.30;;;;;;4944354;28;95349;-37
2023/10/07 03:04:42;;;;;;;;;;;20.30;74.30;;;;;;4946500;28;93863;-36
2023/10/07 03:07:14;;;;;;;;;;;20.30;74.30;;;;;;4949377;28;97475;-37
2023/10/07 03:09:42;;;;;;;;;;;20.30;74.20;;;;;;4949548;28;96531;-37
2023/10/07 03:12:12;;;;;;;;;;;20.30;74.00;;;;;;4943916;28;95838;-37
2023/10/07 03:14:39;;;;;;;;;;;20.30;74.00;;;;;;4950204;28;95995;-37
2023/10/07 03:17:16;;;;;;;;;;;20.30;74.00;;;;;;4943550;28;94733;-37
2023/10/07 03:19:56;;;;;;;;;;;20.30;73.90;;;;;;4947025;28;95264;-37
2023/10/07 03:22:28;;;;;;;;;;;20.30;73.90;;;;;;4943837;28;95676;-37
2023/10/07 03:25:00;;;;;;;;;;;20.30;73.90;;;;;;4945299;28;94796;-36
2023/10/07 03:27:26;;;;;;;;;;;20.30;73.70;;;;;;4943757;28;95788;-36
2023/10/07 03:30:12;;;;;;;;;;;20.30;73.90;;;;;;4941371;28;94488;-37
2023/10/07 03:32:57;;;;;;;;;;;20.30;73.90;;;;;;4937105;28;96259;-37
2023/10/07 03:38:10;;;;;;;;;;;20.20;74.10;;;;;;4944653;28;96250;-37
2023/10/07 03:40:38;;;;;;;;;;;20.30;74.00;;;;;;4946979;28;95152;-37
2023/10/07 03:43:04;;;;;;;;;;;20.30;73.90;;;;;;4942637;28;96790;-37
2023/10/07 03:45:29;;;;;;;;;;;20.30;74.00;;;;;;4941810;28;94615;-37
2023/10/07 03:47:56;;;;;;;;;;;20.30;74.00;;;;;;4949602;28;94681;-37
2023/10/07 03:50:34;;;;;;;;;;;20.30;73.90;;;;;;4931252;28;95688;-37
2023/10/07 03:53:01;;;;;;;;;;;20.30;73.90;;;;;;4938381;28;97049;-37
2023/10/07 03:55:27;;;;;;;;;;;20.20;74.00;;;;;;4946700;28;95852;-37
2023/10/07 03:57:53;;;;;;;;;;;20.20;74.00;;;;;;4940952;28;97302;-37
2023/10/07 04:00:19;;;;;;;;;;;20.20;74.10;;;;;;4943238;28;97816;-37
2023/10/07 04:02:45;;;;;;;;;;;20.20;74.00;;;;;;4938496;28;98317;-37
2023/10/07 04:05:12;;;;;;;;;;;20.20;73.90;;;;;;4944140;28;95166;-36
2023/10/07 04:07:38;;;;;;;;;;;20.20;74.00;;;;;;4946417;28;95715;-37
2023/10/07 04:12:47;;;;;;;;;;;20.30;73.90;;;;;;4951166;28;96332;-36
2023/10/07 04:15:16;;;;;;;;;;;20.30;73.90;;;;;;4945703;28;95168;-37
2023/10/07 04:17:42;;;;;;;;;;;20.20;74.00;;;;;;4948609;28;95508;-37
2023/10/07 04:20:22;;;;;;;;;;;20.20;73.90;;;;;;4947928;28;95918;-36
2023/10/07 04:23:08;;;;;;;;;;;20.20;73.80;;;;;;4943999;28;96132;-37
2023/10/07 04:25:42;;;;;;;;;;;20.20;73.90;;;;;;4943185;28;96205;-36
2023/10/07 04:28:13;;;;;;;;;;;20.20;73.90;;;;;;4945593;28;95677;-36
2023/10/07 04:30:39;;;;;;;;;;;20.20;74.20;;;;;;4943694;28;94782;-37
2023/10/07 04:33:10;;;;;;;;;;;20.20;74.10;;;;;;4942373;28;95531;-37
2023/10/07 04:35:37;;;;;;;;;;;20.20;74.10;;;;;;4947271;28;95877;-37
2023/10/07 04:38:10;;;;;;;;;;;20.20;74.00;;;;;;4942515;28;96912;-37
2023/10/07 04:41:30;;;;;;;;;;;20.20;74.10;;;;;;4951516;28;95384;-37
2023/10/07 04:43:50;;;;;;;;;;;20.20;74.10;;;;;;4938547;28;97338;-37
2023/10/07 04:46:28;;;;;;;;;;;20.20;74.00;;;;;;4953171;28;95249;-37
2023/10/07 04:48:54;;;;;;;;;;;20.20;73.80;;;;;;4942288;28;94864;-37
2023/10/07 04:53:58;;;;;;;;;;;20.20;74.00;;;;;;4949143;28;98326;-36
2023/10/07 04:56:25;;;;;;;;;;;20.10;74.00;;;;;;4954811;28;94924;-37
2023/10/07 04:58:52;;;;;;;;;;;20.10;74.10;;;;;;4948647;28;94862;-37
2023/10/07 05:01:33;;;;;;;;;;;20.20;74.20;;;;;;4943120;28;95027;-37
2023/10/07 05:04:08;;;;;;;;;;;20.20;74.10;;;;;;4940806;28;95951;-36
2023/10/07 05:06:34;;;;;;;;;;;20.20;74.20;;;;;;4947985;28;94691;-37
2023/10/07 05:09:03;;;;;;;;;;;20.20;74.30;;;;;;4941859;28;96214;-36
2023/10/07 05:11:31;;;;;;;;;;;20.10;74.20;;;;;;4946994;28;93267;-36
2023/10/07 05:13:57;;;;;;;;;;;20.20;74.30;;;;;;4951573;28;95107;-36
2023/10/07 05:16:22;;;;;;;;;;;20.10;74.30;;;;;;4943757;28;95638;-36
2023/10/07 05:18:48;;;;;;;;;;;20.10;74.40;;;;;;4953464;28;96234;-37
2023/10/07 05:21:16;;;;;;;;;;;20.10;74.50;;;;;;4942958;28;94670;-37
2023/10/07 05:23:41;;;;;;;;;;;20.20;74.40;;;;;;4937266;28;95457;-36
2023/10/07 05:26:09;;;;;;;;;;;20.10;74.50;;;;;;4954324;28;96482;-37
2023/10/07 05:28:35;;;;;;;;;;;20.10;74.40;;;;;;4947414;28;94864;-36
2023/10/07 05:31:03;;;;;;;;;;;20.10;74.30;;;;;;4951365;28;96717;-36
2023/10/07 05:33:32;;;;;;;;;;;20.10;74.30;;;;;;4943144;28;96662;-37
2023/10/07 05:35:58;;;;;;;;;;;20.10;74.30;;;;;;4955700;28;93997;-37
2023/10/07 05:38:23;;;;;;;;;;;20.10;74.30;;;;;;4943879;28;94832;-37
2023/10/07 05:40:49;;;;;;;;;;;20.10;74.30;;;;;;4945175;28;94808;-37
2023/10/07 05:43:15;;;;;;;;;;;20.10;74.30;;;;;;4945032;28;95544;-37
2023/10/07 05:45:41;;;;;;;;;;;20.10;74.10;;;;;;4948364;28;94717;-37
2023/10/07 05:48:10;;;;;;;;;;;20.10;74.30;;;;;;4954599;28;94716;-37
2023/10/07 05:50:36;;;;;;;;;;;20.10;74.50;;;;;;4961268;28;94742;-36
2023/10/07 05:53:04;;;;;;;;;;;20.10;74.40;;;;;;4949395;28;95485;-37
2023/10/07 05:55:30;;;;;;;;;;;20.10;74.40;;;;;;4944566;28;95722;-37
2023/10/07 05:57:58;;;;;;;;;;;20.10;74.40;;;;;;4941431;28;99674;-37
2023/10/07 06:00:25;;;;;;;;;;;20.10;74.20;;;;;;4932490;28;97988;-35
2023/10/07 06:02:53;;;;;;;;;;;20.10;74.30;;;;;;4940157;28;95507;-37
2023/10/07 06:05:20;;;;;;;;;;;20.10;74.40;;;;;;4941861;28;101024;-37
2023/10/07 06:07:46;;;;;;;;;;;20.00;74.50;;;;;;4944201;28;100166;-37
2023/10/07 06:10:12;;;;;;;;;;;20.00;74.70;;;;;;4934151;28;96329;-37
2023/10/07 06:12:37;;;;;;;;;;;20.00;74.80;;;;;;4941083;28;95706;-37
2023/10/07 06:15:08;;;;;;;;;;;20.00;74.90;;;;;;4948562;28;97826;-37
2023/10/07 06:17:36;;;;;;;;;;;20.10;74.90;;;;;;4941617;28;95593;-37
2023/10/07 06:20:14;;;;;;;;;;;20.10;74.80;;;;;;4942842;28;94907;-37
2023/10/07 06:22:45;;;;;;;;;;;20.00;74.90;;;;;;4942500;28;95364;-37
2023/10/07 06:25:17;;;;;;;;;;;20.00;74.90;;;;;;4939038;28;95249;-37
2023/10/07 06:27:46;;;;;;;;;;;20.00;75.50;;;;;;4942777;28;95639;-37
2023/10/07 06:30:19;;;;;;;;;;;20.00;75.70;;;;;;4937174;28;94711;-37
2023/10/07 06:32:45;;;;;;;;;;;20.00;76.00;;;;;;4935278;28;98387;-37
2023/10/07 06:35:14;;;;;;;;;;;20.00;75.60;;;;;;4942046;28;95294;-37
2023/10/07 06:37:42;;;;;;;;;;;20.00;75.60;;;;;;4936752;28;95929;-37
2023/10/07 06:40:29;;;;;;;;;;;20.00;75.60;;;;;;4937976;28;94882;-37
2023/10/07 06:42:58;;;;;;;;;;;20.00;75.60;;;;;;4938582;28;94710;-37
2023/10/07 06:45:29;;;;;;;;;;;20.10;75.50;;;;;;4930947;28;94779;-37
2023/10/07 06:47:59;;;;;;;;;;;20.20;75.20;;;;;;4943930;28;95406;-38
2023/10/07 06:50:27;;;;;;;;;;;20.20;75.00;;;;;;4930258;28;96149;-37
2023/10/07 06:52:55;;;;;;;;;;;20.30;75.00;;;;;;4935664;28;97826;-38
2023/10/07 06:55:22;;;;;;;;;;;20.30;74.80;;;;;;4935619;28;96083;-38
2023/10/07 06:57:48;;;;;;;;;;;20.30;74.60;;;;;;4933492;28;96352;-38
2023/10/07 07:00:23;;;;;;;;;;;20.30;74.80;;;;;;4931949;28;101963;-38
2023/10/07 07:02:54;;;;;;;;;;;20.30;74.90;;;;;;4923535;28;95538;-38
2023/10/07 07:05:22;;;;;;;;;;;20.20;75.10;;;;;;4933686;28;95466;-38
2023/10/07 07:07:52;;;;;;;;;;;20.30;75.00;;;;;;4944822;28;94756;-38
2023/10/07 07:10:27;;;;;;;;;;;20.20;74.90;;;;;;4934777;28;95982;-38
2023/10/07 07:12:58;;;;;;;;;;;20.30;75.10;;;;;;4935366;28;94813;-38
2023/10/07 07:15:28;;;;;;;;;;;20.30;75.00;;;;;;4931263;28;94637;-38
2023/10/07 07:20:53;;;;;;;;;;;20.30;75.10;;;;;;4938309;28;95323;-37
2023/10/07 07:23:24;;;;;;;;;;;20.20;75.80;;;;;;4941505;28;95730;-37
2023/10/07 07:26:06;;;;;;;;;;;20.20;76.10;;;;;;4931910;28;96209;-37
2023/10/07 07:28:32;;;;;;;;;;;20.20;76.10;;;;;;4937792;28;94774;-38
2023/10/07 07:31:02;;;;;;;;;;;20.20;76.40;;;;;;4942412;28;95566;-38
2023/10/07 07:33:37;;;;;;;;;;;20.20;76.50;;;;;;4934046;28;94791;-37
2023/10/07 07:36:17;;;;;;;;;;;20.30;76.90;;;;;;4939329;28;95328;-38
2023/10/07 07:38:43;;;;;;;;;;;20.20;76.10;;;;;;4936563;28;94790;-38
2023/10/07 07:41:09;;;;;;;;;;;20.20;76.30;;;;;;4945385;28;94029;-38
2023/10/07 07:43:36;;;;;;;;;;;20.30;76.50;;;;;;4944575;28;94861;-38
2023/10/07 07:48:43;;;;;;;;;;;20.30;76.80;;;;;;4933853;28;95719;-38
2023/10/07 07:51:09;;;;;;;;;;;20.30;76.90;;;;;;4945433;23;97465;-74
2023/10/07 07:53:35;;;;;;;;;;;20.30;76.90;;;;;;4911372;28;97031;-74
2023/10/07 07:56:01;;;;;;;;;;;20.30;76.90;;;;;;4914382;28;94447;-73
2023/10/07 07:58:26;;;;;;;;;;;20.30;77.00;;;;;;4918120;28;94780;-72
2023/10/07 08:01:05;;;;;;;;;;;20.30;77.30;;;;;;4933256;28;94657;-73
2023/10/07 08:03:35;;;;;;;;;;;20.30;77.20;;;;;;4928924;28;98967;-71
2023/10/07 08:06:04;;;;;;;;;;;20.30;77.30;;;;;;4940349;22;93884;-35
2023/10/07 08:08:30;;;;;;;;;;;20.30;77.40;;;;;;4966436;28;98187;-36
2023/10/07 08:10:56;;;;;;;;;;;20.30;77.40;;;;;;4970101;28;95322;-36
2023/10/07 08:13:23;;;;;;;;;;;20.30;77.30;;;;;;4958594;28;97311;-38
2023/10/07 08:15:50;;;;;;;;;;;20.30;77.40;;;;;;4959631;28;95054;-38
2023/10/07 08:18:16;;;;;;;;;;;20.30;78.10;;;;;;4961146;28;95305;-38
2023/10/07 08:20:44;;;;;;;;;;;20.30;77.90;;;;;;4961761;28;99330;-38
2023/10/07 08:23:22;;;;;;;;;;;20.30;77.90;;;;;;4963801;28;96099;-38
2023/10/07 08:25:49;;;;;;;;;;;20.30;77.90;;;;;;4971862;28;94723;-38
2023/10/07 08:28:37;;;;;;;;;;;20.30;77.90;;;;;;4976830;28;96229;-38
2023/10/07 08:31:13;;;;;;;;;;;20.30;77.70;;;;;;4977060;28;94843;-38
2023/10/07 08:33:39;;;;;;;;;;;20.30;77.70;;;;;;4969876;28;97724;-38
2023/10/07 08:36:07;;;;;;;;;;;20.30;77.70;;;;;;4973523;28;95796;-38
2023/10/07 08:38:44;;;;;;;;;;;20.30;77.80;;;;;;4969591;28;98801;-38
2023/10/07 08:41:10;;;;;;;;;;;20.40;77.90;;;;;;4965039;28;94944;-38
2023/10/07 08:43:45;;;;;;;;;;;20.30;77.80;;;;;;4961792;28;96193;-41
2023/10/07 08:46:12;;;;;;;;;;;20.40;78.40;;;;;;4958088;28;97824;-38
2023/10/07 08:48:39;;;;;;;;;;;20.40;78.90;;;;;;4968804;28;94665;-39
2023/10/07 08:51:13;;;;;;;;;;;20.40;78.60;;;;;;4951672;28;94684;-39
2023/10/07 08:53:38;;;;;;;;;;;20.40;78.80;;;;;;4937707;28;94693;-39
2023/10/07 08:56:08;;;;;;;;;;;20.40;78.50;;;;;;4946476;28;95830;-39
2023/10/07 08:58:37;;;;;;;;;;;20.40;78.70;;;;;;4944591;28;95613;-39
2023/10/07 09:01:07;;;;;;;;;;;20.40;78.70;;;;;;4943715;28;95468;-39
2023/10/07 09:03:39;;;;;;;;;;;20.40;78.60;;;;;;4936625;28;97030;-39
2023/10/07 09:06:09;;;;;;;;;;;20.50;78.40;;;;;;4942166;28;98826;-39
2023/10/07 09:08:34;;;;;;;;;;;20.50;78.60;;;;;;4950142;28;95609;-40
2023/10/07 09:11:03;;;;;;;;;;;20.50;78.50;;;;;;4948292;28;96055;-38
2023/10/07 09:13:31;;;;;;;;;;;20.50;78.50;;;;;;4943610;28;95181;-39
2023/10/07 09:16:00;;;;;;;;;;;20.50;78.30;;;;;;4944698;28;95140;-39
2023/10/07 09:18:29;;;;;;;;;;;20.40;78.50;;;;;;4943612;28;94868;-39
2023/10/07 09:20:57;;;;;;;;;;;20.40;78.60;;;;;;4936806;28;96682;-39
2023/10/07 09:23:35;;;;;;;;;;;20.50;79.00;;;;;;4953220;28;95847;-39
2023/10/07 09:26:14;;;;;;;;;;;20.50;79.00;;;;;;4947296;28;95863;-39
2023/10/07 09:28:39;;;;;;;;;;;20.50;79.10;;;;;;4939106;28;97198;-39
2023/10/07 09:31:08;;;;;;;;;;;20.50;78.90;;;;;;4940114;28;95677;-39
2023/10/07 09:33:37;;;;;;;;;;;20.60;78.90;;;;;;4935978;28;98054;-39
2023/10/07 09:38:48;;;;;;;;;;;20.60;79.00;;;;;;4937213;28;94786;-38
2023/10/07 09:43:51;;;;;;;;;;;20.50;79.00;;;;;;4943328;28;95853;-37
2023/10/07 09:46:27;;;;;;;;;;;20.50;79.30;;;;;;4935500;28;95433;-38
2023/10/07 09:48:59;;;;;;;;;;;20.50;79.20;;;;;;4939535;28;94835;-38
2023/10/07 09:51:28;;;;;;;;;;;20.50;79.40;;;;;;4942062;28;97197;-38
2023/10/07 09:54:10;;;;;;;;;;;20.60;79.70;;;;;;4937756;28;96671;-38
2023/10/07 09:56:58;;;;;;;;;;;20.50;79.60;;;;;;4952109;28;95641;-38
2023/10/07 09:59:25;;;;;;;;;;;20.50;79.60;;;;;;4949826;28;98225;-38
2023/10/07 10:01:54;;;;;;;;;;;20.50;79.70;;;;;;4948871;28;95936;-38
2023/10/07 10:04:36;;;;;;;;;;;20.50;79.80;;;;;;4952417;28;95074;-38
2023/10/07 10:07:05;;;;;;;;;;;20.50;80.20;;;;;;4940871;28;96902;-38
2023/10/07 10:09:48;;;;;;;;;;;20.40;80.90;;;;;;4944989;28;96436;-38
2023/10/07 10:12:27;;;;;;;;;;;20.50;81.30;;;;;;4947162;28;97641;-37
2023/10/07 10:17:53;;;;;;;;;;;20.60;81.40;;;;;;4899604;28;94884;-38
2023/10/07 10:20:27;;;;;;;;;;;20.60;81.80;;;;;;4937521;28;95731;-38
2023/10/07 10:22:59;;;;;;;;;;;20.60;81.70;;;;;;4936259;28;94795;-38
2023/10/07 10:25:37;;;;;;;;;;;20.70;81.30;;;;;;4938615;28;95370;-38
2023/10/07 10:28:03;;;;;;;;;;;20.70;80.90;;;;;;4936216;28;95220;-38
2023/10/07 10:30:32;;;;;;;;;;;20.70;81.50;;;;;;4946637;28;95136;-38
2023/10/07 10:33:00;;;;;;;;;;;20.70;80.80;;;;;;4952369;28;94738;-38
2023/10/07 10:35:26;;;;;;;;;;;20.70;80.50;;;;;;4937012;28;96590;-37
2023/10/07 10:37:55;;;;;;;;;;;20.70;81.00;;;;;;4947186;28;94421;-36
2023/10/07 10:40:21;;;;;;;;;;;20.90;81.50;;;;;;4944585;28;96472;-37
2023/10/07 10:42:49;;;;;;;;;;;20.90;80.80;;;;;;4941056;28;95763;-37
2023/10/07 10:45:21;;;;;;;;;;;20.90;80.10;;;;;;4960781;28;95966;-37
2023/10/07 10:47:54;;;;;;;;;;;20.80;80.50;;;;;;4957957;28;95795;-38
2023/10/07 10:50:23;;;;;;;;;;;20.80;80.50;;;;;;4951918;28;96496;-37
2023/10/07 10:52:49;;;;;;;;;;;20.80;80.70;;;;;;4949840;28;95102;-37
2023/10/07 10:55:18;;;;;;;;;;;20.90;80.60;;;;;;4947645;28;95344;-37
2023/10/07 10:57:45;;;;;;;;;;;20.90;80.30;;;;;;4949029;28;95036;-37
2023/10/07 11:00:21;;;;;;;;;;;20.90;81.60;;;;;;4941586;28;94768;-38
2023/10/07 11:02:48;;;;;;;;;;;20.90;82.10;;;;;;4949851;28;95417;-38
2023/10/07 11:05:14;;;;;;;;;;;20.90;81.20;;;;;;4948790;28;95634;-38
2023/10/07 11:07:40;;;;;;;;;;;20.90;81.70;;;;;;4930024;28;94802;-38
2023/10/07 11:10:07;;;;;;;;;;;20.90;80.90;;;;;;4919424;28;101969;-38
2023/10/07 11:12:32;;;;;;;;;;;21.00;80.80;;;;;;4915842;28;96299;-38
2023/10/07 11:15:07;;;;;;;;;;;21.00;80.70;;;;;;4921840;28;96432;-38
2023/10/07 11:17:33;;;;;;;;;;;21.00;80.40;;;;;;4920943;28;94623;-38
2023/10/07 11:20:02;;;;;;;;;;;21.00;80.30;;;;;;4921299;28;95237;-38
2023/10/07 11:22:30;;;;;;;;;;;21.10;79.80;;;;;;4922233;28;95374;-38
2023/10/07 11:24:55;;;;;;;;;;;21.10;80.00;;;;;;4920174;28;97545;-38
2023/10/07 11:27:23;;;;;;;;;;;21.10;80.00;;;;;;4926207;28;94239;-38
2023/10/07 11:30:03;;;;;;;;;;;21.10;80.70;;;;;;4933956;28;97309;-38
2023/10/07 11:32:33;;;;;;;;;;;21.10;80.30;;;;;;4931235;28;95989;-37
2023/10/07 11:34:59;;;;;;;;;;;21.20;79.70;;;;;;4912850;28;96299;-38
2023/10/07 11:37:27;;;;;;;;;;;21.20;79.20;;;;;;4920004;28;95058;-39
2023/10/07 11:39:53;;;;;;;;;;;21.20;79.40;;;;;;4915221;28;96214;-37
2023/10/07 11:42:20;;;;;;;;;;;21.30;79.40;;;;;;4927332;28;95336;-38
2023/10/07 11:44:52;;;;;;;;;;;21.30;79.40;;;;;;4925740;28;95638;-37
2023/10/07 11:47:18;;;;;;;;;;;21.30;79.00;;;;;;4916222;28;96781;-38
2023/10/07 11:49:46;;;;;;;;;;;21.30;78.70;;;;;;4933937;28;95178;-38
2023/10/07 11:52:12;;;;;;;;;;;21.30;78.30;;;;;;4931718;28;94391;-36
2023/10/07 11:54:37;;;;;;;;;;;21.30;78.20;;;;;;4928659;28;98105;-37
2023/10/07 11:57:05;;;;;;;;;;;21.30;78.30;;;;;;4933155;28;99114;-37
2023/10/07 11:59:31;;;;;;;;;;;21.40;78.60;;;;;;4921718;28;95844;-37
2023/10/07 12:01:57;;;;;;;;;;;21.40;77.90;;;;;;4932493;28;95510;-37
2023/10/07 12:04:22;;;;;;;;;;;21.40;77.90;;;;;;4927995;28;95048;-37
2023/10/07 12:06:50;;;;;;;;;;;21.40;78.70;;;;;;4918124;28;94772;-37
2023/10/07 12:09:20;;;;;;;;;;;21.40;79.30;;;;;;4949464;28;98700;-37
2023/10/07 12:11:45;;;;;;;;;;;21.40;79.40;;;;;;4947373;28;96479;-39
2023/10/07 12:14:13;;;;;;;;;;;21.50;79.90;;;;;;4944910;28;95355;-38
2023/10/07 12:16:38;;;;;;;;;;;21.50;76.90;;;;;;4951202;28;95480;-37
2023/10/07 12:19:04;;;;;;;;;;;21.50;78.40;;;;;;4955275;28;94918;-37
2023/10/07 12:21:30;;;;;;;;;;;21.50;78.60;;;;;;4942945;28;95178;-37
2023/10/07 12:23:56;;;;;;;;;;;21.50;76.90;;;;;;4948963;28;95687;-37
2023/10/07 12:26:22;;;;;;;;;;;21.50;76.20;;;;;;4939066;28;100839;-36
2023/10/07 12:28:49;;;;;;;;;;;21.50;76.20;;;;;;4943875;28;94736;-37
2023/10/07 12:31:15;;;;;;;;;;;21.60;77.50;;;;;;4939325;28;95785;-36
2023/10/07 12:33:40;;;;;;;;;;;21.60;77.40;;;;;;4926887;28;96064;-38
2023/10/07 12:36:14;;;;;;;;;;;21.70;77.80;;;;;;4947900;28;95253;-38
2023/10/07 12:38:42;;;;;;;;;;;21.70;78.90;;;;;;4936179;28;95900;-38
2023/10/07 12:41:08;;;;;;;;;;;21.80;79.00;;;;;;4939223;28;94920;-38
2023/10/07 12:43:34;;;;;;;;;;;21.80;79.30;;;;;;4942062;28;96333;-38
2023/10/07 12:46:00;;;;;;;;;;;21.90;79.80;;;;;;4944139;28;95004;-38
2023/10/07 12:48:26;;;;;;;;;;;21.90;80.00;;;;;;4955671;28;100188;-38
2023/10/07 12:50:52;;;;;;;;;;;21.90;79.90;;;;;;4948105;28;95850;-39
2023/10/07 12:53:18;;;;;;;;;;;22.00;79.80;;;;;;4950180;28;95344;-38
2023/10/07 12:55:44;;;;;;;;;;;22.00;79.60;;;;;;4946665;28;96865;-38
2023/10/07 12:58:15;;;;;;;;;;;22.00;79.20;;;;;;4953771;28;95297;-38
2023/10/07 13:00:41;;;;;;;;;;;22.00;79.60;;;;;;4948897;28;98247;-38
2023/10/07 13:03:07;;;;;;;;;;;22.00;79.60;;;;;;4953813;28;95277;-38
2023/10/07 13:05:35;;;;;;;;;;;22.00;79.40;;;;;;4951952;28;94469;-38
2023/10/07 13:08:00;;;;;;;;;;;22.00;79.50;;;;;;4952748;28;98569;-38
2023/10/07 13:10:26;;;;;;;;;;;22.00;79.30;;;;;;4953673;28;97698;-38
2023/10/07 13:12:55;;;;;;;;;;;22.00;79.20;;;;;;4950238;28;96669;-38
2023/10/07 13:15:30;;;;;;;;;;;22.00;79.30;;;;;;4954772;28;95208;-39
2023/10/07 13:17:58;;;;;;;;;;;22.10;79.30;;;;;;4953541;28;94882;-38
2023/10/07 13:20:24;;;;;;;;;;;22.10;79.20;;;;;;4958521;28;95128;-38
2023/10/07 13:22:50;;;;;;;;;;;22.10;79.00;;;;;;4955695;28;94647;-38
2023/10/07 13:25:19;;;;;;;;;;;22.10;78.80;;;;;;4943586;28;95100;-38
2023/10/07 13:27:48;;;;;;;;;;;22.10;78.80;;;;;;4952038;28;98408;-38
2023/10/07 13:30:15;;;;;;;;;;;22.10;78.40;;;;;;4948533;28;96992;-38
2023/10/07 13:32:44;;;;;;;;;;;22.10;78.40;;;;;;4947041;28;94653;-38
2023/10/07 13:35:16;;;;;;;;;;;22.10;78.70;;;;;;4946479;28;94729;-39
2023/10/07 13:37:52;;;;;;;;;;;22.10;78.40;;;;;;4948641;28;99033;-38
2023/10/07 13:40:19;;;;;;;;;;;22.10;78.40;;;;;;4951242;28;95295;-39
2023/10/07 13:42:47;;;;;;;;;;;22.10;78.40;;;;;;4946940;28;94751;-38
2023/10/07 13:45:14;;;;;;;;;;;22.20;78.50;;;;;;4948858;28;95738;-39
2023/10/07 13:47:39;;;;;;;;;;;22.20;78.20;;;;;;4947589;28;94659;-38
2023/10/07 13:50:13;;;;;;;;;;;22.20;78.30;;;;;;4955774;28;96379;-39
2023/10/07 13:52:51;;;;;;;;;;;22.20;78.30;;;;;;4948325;28;95553;-38
2023/10/07 13:55:22;;;;;;;;;;;22.20;78.10;;;;;;4953360;28;93915;-38
2023/10/07 13:57:53;;;;;;;;;;;22.20;78.00;;;;;;4948393;28;95043;-38
2023/10/07 14:00:28;;;;;;;;;;;22.20;77.90;;;;;;4949299;28;94664;-38
2023/10/07 14:02:56;;;;;;;;;;;22.30;78.00;;;;;;4944455;28;96241;-38
2023/10/07 14:05:22;;;;;;;;;;;22.30;77.80;;;;;;4948332;28;94940;-38
2023/10/07 14:07:48;;;;;;;;;;;22.20;77.60;;;;;;4952942;28;94826;-39
2023/10/07 14:10:14;;;;;;;;;;;22.30;77.60;;;;;;4956379;28;98128;-38
2023/10/07 14:12:41;;;;;;;;;;;22.30;77.40;;;;;;4950989;28;97547;-39
2023/10/07 14:15:07;;;;;;;;;;;22.30;77.20;;;;;;4947278;28;95240;-38
2023/10/07 14:17:33;;;;;;;;;;;22.30;77.00;;;;;;4955766;28;94763;-38
2023/10/07 14:19:58;;;;;;;;;;;22.30;76.90;;;;;;4950995;28;94121;-38
2023/10/07 14:22:24;;;;;;;;;;;22.30;76.90;;;;;;4945923;28;96025;-38
2023/10/07 14:24:50;;;;;;;;;;;22.30;76.90;;;;;;4956251;28;94672;-39
2023/10/07 14:27:17;;;;;;;;;;;22.30;77.10;;;;;;4945132;28;95756;-38
2023/10/07 14:29:42;;;;;;;;;;;22.30;76.90;;;;;;4957837;28;96165;-38
2023/10/07 14:32:09;;;;;;;;;;;22.30;77.00;;;;;;4946036;28;97858;-38
2023/10/07 14:34:35;;;;;;;;;;;22.30;77.00;;;;;;4938668;28;94667;-38
2023/10/07 14:37:01;;;;;;;;;;;22.30;76.90;;;;;;4947409;28;95240;-38
2023/10/07 14:39:27;;;;;;;;;;;22.30;76.90;;;;;;4944399;28;95486;-38
2023/10/07 14:41:53;;;;;;;;;;;22.30;76.90;;;;;;4936482;28;95248;-39
2023/10/07 14:44:18;;;;;;;;;;;22.30;76.80;;;;;;4943140;28;95982;-38
2023/10/07 14:46:44;;;;;;;;;;;22.30;76.70;;;;;;4952507;28;95735;-38
2023/10/07 14:49:12;;;;;;;;;;;22.30;76.70;;;;;;4945499;28;95193;-38
2023/10/07 14:51:37;;;;;;;;;;;22.40;76.40;;;;;;4942340;28;96457;-39
2023/10/07 14:54:03;;;;;;;;;;;22.30;76.30;;;;;;4934109;28;95134;-38
2023/10/07 14:56:29;;;;;;;;;;;22.30;76.30;;;;;;4936126;28;98618;-40
2023/10/07 14:58:54;;;;;;;;;;;22.40;76.20;;;;;;4939045;28;95263;-37